createdAt,value
2018-08-20T00:01:38.902Z,20.8
2018-08-20T00:06:38.952Z,20.8
2018-08-20T00:11:40.976Z,20.7
2018-08-20T00:16:40.973Z,20.7
2018-08-20T00:21:54.396Z,20.8
2018-08-20T00:26:54.124Z,20.8
2018-08-20T00:31:54.288Z,20.7
2018-08-20T00:36:54.329Z,20.6
2018-08-20T00:41:54.234Z,20.5
2018-08-20T00:46:54.138Z,20.3
2018-08-20T00:51:54.335Z,20.2
2018-08-20T00:56:54.125Z,20
2018-08-20T01:01:54.290Z,20.1
2018-08-20T01:06:54.332Z,20
2018-08-20T01:11:54.367Z,20.1
2018-08-20T01:16:54.292Z,20
2018-08-20T01:21:54.148Z,19.9
2018-08-20T01:26:54.367Z,19.9
2018-08-20T01:32:06.550Z,19.9
2018-08-20T01:37:06.407Z,19.8
2018-08-20T01:42:06.452Z,19.8
2018-08-20T01:47:06.482Z,19.8
2018-08-20T01:52:06.271Z,19.8
2018-08-20T01:57:06.299Z,19.9
2018-08-20T02:02:06.242Z,19.9
2018-08-20T02:07:06.511Z,19.9
2018-08-20T02:12:06.298Z,19.8
2018-08-20T02:17:06.289Z,19.9
2018-08-20T02:22:06.513Z,19.9
2018-08-20T02:27:06.437Z,19.8
2018-08-20T02:32:06.890Z,19.8
2018-08-20T02:37:06.826Z,19.8
2018-08-20T02:42:19.764Z,19.9
2018-08-20T02:47:19.491Z,19.8
2018-08-20T02:52:19.490Z,19.8
2018-08-20T02:57:19.655Z,19.7
2018-08-20T03:02:19.517Z,19.7
2018-08-20T03:07:19.532Z,19.6
2018-08-20T03:12:19.511Z,19.6
2018-08-20T03:17:19.637Z,19.5
2018-08-20T03:22:19.715Z,19.4
2018-08-20T03:27:35.209Z,19.3
2018-08-20T03:32:35.052Z,19.3
2018-08-20T03:37:35.083Z,19.2
2018-08-20T03:42:35.121Z,19
2018-08-20T03:47:35.049Z,19
2018-08-20T03:52:34.937Z,19.1
2018-08-20T03:57:34.939Z,19
2018-08-20T04:02:35.155Z,19
2018-08-20T04:07:35.202Z,18.9
2018-08-20T04:12:35.196Z,18.7
2018-08-20T04:17:35.040Z,18.8
2018-08-20T04:22:35.178Z,18.6
2018-08-20T04:27:35.962Z,18.7
2018-08-20T04:32:35.883Z,18.7
2018-08-20T04:37:48.089Z,18.7
2018-08-20T04:42:47.754Z,18.7
2018-08-20T04:47:47.799Z,18.9
2018-08-20T04:52:47.806Z,19.1
2018-08-20T04:57:47.799Z,19.2
2018-08-20T05:02:47.955Z,19.4
2018-08-20T05:07:47.812Z,19.5
2018-08-20T05:12:48.629Z,19.8
2018-08-20T05:17:48.381Z,20
2018-08-20T05:23:00.865Z,20.3
2018-08-20T05:28:00.593Z,20.5
2018-08-20T05:33:00.589Z,20.8
2018-08-20T05:38:00.796Z,21.1
2018-08-20T05:43:00.595Z,21.4
2018-08-20T05:48:00.604Z,21.6
2018-08-20T05:53:00.603Z,21.9
2018-08-20T05:58:00.831Z,22.2
2018-08-20T06:03:00.778Z,22.3
2018-08-20T06:08:00.838Z,22.6
2018-08-20T06:13:00.843Z,23
2018-08-20T06:18:00.753Z,23.2
2018-08-20T06:23:00.920Z,23.4
2018-08-20T06:28:00.829Z,23.8
2018-08-20T06:33:13.941Z,24
2018-08-20T06:38:13.795Z,24.2
2018-08-20T06:43:13.830Z,24.4
2018-08-20T06:48:13.865Z,24.6
2018-08-20T06:53:13.797Z,25
2018-08-20T06:58:13.826Z,25.1
2018-08-20T07:03:13.679Z,25.3
2018-08-20T07:08:14.036Z,25.2
2018-08-20T07:13:13.741Z,25.3
2018-08-20T07:18:26.080Z,25.5
2018-08-20T07:23:25.997Z,26
2018-08-20T07:28:26.023Z,26.3
2018-08-20T07:33:26.054Z,26.7
2018-08-20T07:38:25.755Z,26.9
2018-08-20T07:43:29.591Z,27.1
2018-08-20T07:48:29.745Z,26.9
2018-08-20T07:53:34.706Z,27.2
2018-08-20T07:58:34.432Z,27.5
2018-08-20T08:03:47.264Z,27.7
2018-08-20T08:08:47.013Z,27.8
2018-08-20T08:13:46.965Z,27.5
2018-08-20T08:18:46.998Z,27.5
2018-08-20T08:23:46.965Z,27.9
2018-08-20T08:28:46.982Z,28.2
2018-08-20T08:33:47.150Z,27.7
2018-08-20T08:38:47.010Z,28
2018-08-20T08:43:47.224Z,28
2018-08-20T08:49:00.775Z,28.8
2018-08-20T08:54:00.467Z,29.1
2018-08-20T08:59:00.630Z,29.6
2018-08-20T09:04:00.664Z,29.6
2018-08-20T09:09:00.701Z,29.3
2018-08-20T09:14:00.716Z,29.6
2018-08-20T09:19:00.504Z,29.9
2018-08-20T09:24:01.747Z,29.6
2018-08-20T09:29:01.660Z,29.3
2018-08-20T09:34:14.303Z,29.4
2018-08-20T09:39:14.037Z,29.6
2018-08-20T09:44:14.026Z,29.3
2018-08-20T09:49:14.016Z,29.8
2018-08-20T09:54:14.043Z,30.1
2018-08-20T09:59:14.111Z,29.9
2018-08-20T10:04:14.172Z,30.3
2018-08-20T10:09:14.169Z,30.5
2018-08-20T10:14:14.045Z,30.8
2018-08-20T10:19:27.431Z,30.4
2018-08-20T10:24:27.122Z,30.4
2018-08-20T10:29:27.152Z,30.3
2018-08-20T10:34:27.146Z,30.7
2018-08-20T10:39:27.282Z,30.8
2018-08-20T10:44:27.170Z,30.6
2018-08-20T10:49:27.303Z,31
2018-08-20T10:54:27.170Z,30.9
2018-08-20T10:59:27.345Z,31.3
2018-08-20T11:04:27.408Z,31.6
2018-08-20T11:09:27.196Z,31.9
2018-08-20T11:14:27.191Z,32
2018-08-20T11:19:28.727Z,31.4
2018-08-20T11:24:28.678Z,31.7
2018-08-20T11:29:41.168Z,31.4
2018-08-20T11:34:40.870Z,32.1
2018-08-20T11:39:41.049Z,32.2
2018-08-20T11:44:40.904Z,32.5
2018-08-20T11:49:40.992Z,32.6
2018-08-20T11:54:40.871Z,32.5
2018-08-20T11:59:40.884Z,32.5
2018-08-20T12:04:41.107Z,32.9
2018-08-20T12:09:41.250Z,32.4
2018-08-20T12:14:55.021Z,32
2018-08-20T12:19:54.966Z,31.9
2018-08-20T12:24:54.869Z,32.2
2018-08-20T12:29:54.902Z,32.3
2018-08-20T12:34:54.943Z,32.7
2018-08-20T12:39:54.860Z,32.9
2018-08-20T12:44:54.918Z,33
2018-08-20T12:49:54.941Z,32.8
2018-08-20T12:54:54.768Z,32.4
2018-08-20T12:59:54.903Z,33.1
2018-08-20T13:04:54.946Z,32.7
2018-08-20T13:09:54.785Z,32.9
2018-08-20T13:14:54.783Z,33
2018-08-20T13:19:54.795Z,32.8
2018-08-20T13:25:08.748Z,32.5
2018-08-20T13:30:08.481Z,32.6
2018-08-20T13:35:08.677Z,32.9
2018-08-20T13:40:08.480Z,32.9
2018-08-20T13:45:08.499Z,33.1
2018-08-20T13:50:08.553Z,33.1
2018-08-20T13:55:08.455Z,32.4
2018-08-20T14:00:08.504Z,32.5
2018-08-20T14:05:08.666Z,32.8
2018-08-20T14:10:21.069Z,32.9
2018-08-20T14:15:20.815Z,32.9
2018-08-20T14:20:20.829Z,32.3
2018-08-20T14:25:20.995Z,31.9
2018-08-20T14:30:20.825Z,31.5
2018-08-20T14:35:20.829Z,31.2
2018-08-20T14:40:21.001Z,31.4
2018-08-20T14:45:20.823Z,31.5
2018-08-20T14:50:21.016Z,31.8
2018-08-20T14:55:21.065Z,32.1
2018-08-20T15:00:20.865Z,32
2018-08-20T15:05:20.848Z,31.9
2018-08-20T15:10:22.903Z,31.9
2018-08-20T15:15:22.790Z,31.7
2018-08-20T15:20:36.571Z,31.7
2018-08-20T15:25:36.317Z,31.8
2018-08-20T15:30:36.414Z,31.8
2018-08-20T15:35:36.320Z,31.7
2018-08-20T15:40:36.546Z,31.6
2018-08-20T15:45:36.530Z,31.6
2018-08-20T15:50:36.550Z,31.6
2018-08-20T15:55:36.515Z,31.7
2018-08-20T16:00:36.525Z,31.4
2018-08-20T16:05:36.709Z,31.4
2018-08-20T16:10:36.555Z,31.3
2018-08-20T16:15:36.538Z,31.1
2018-08-20T16:20:36.790Z,31.1
2018-08-20T16:25:36.801Z,31.1
2018-08-20T16:30:50.198Z,31
2018-08-20T16:35:48.501Z,30.9
2018-08-20T16:40:48.623Z,30.9
2018-08-20T16:45:48.511Z,30.7
2018-08-20T16:50:48.598Z,30.7
2018-08-20T16:55:48.541Z,30.4
2018-08-20T17:00:48.549Z,30.4
2018-08-20T17:05:51.716Z,30.3
2018-08-20T17:10:51.456Z,30.2
2018-08-20T17:16:04.306Z,30.1
2018-08-20T17:21:03.987Z,29.9
2018-08-20T17:26:04.037Z,29.8
2018-08-20T17:31:04.076Z,29.7
2018-08-20T17:36:04.038Z,29.5
2018-08-20T17:41:04.028Z,29.4
2018-08-20T17:46:04.043Z,29
2018-08-20T17:51:04.053Z,28.8
2018-08-20T17:56:04.036Z,28.5
2018-08-20T18:01:04.082Z,28.2
2018-08-20T18:06:04.054Z,28
2018-08-20T18:11:04.060Z,27.8
2018-08-20T18:16:04.061Z,27.6
2018-08-20T18:21:04.052Z,27.3
2018-08-20T18:26:15.952Z,27.1
2018-08-20T18:31:15.716Z,26.9
2018-08-20T18:36:15.676Z,26.6
2018-08-20T18:41:15.698Z,26.6
2018-08-20T18:46:15.705Z,26.4
2018-08-20T18:51:15.665Z,26.2
2018-08-20T18:56:15.700Z,26.1
2018-08-20T19:01:16.994Z,26
2018-08-20T19:06:16.739Z,25.5
2018-08-20T19:11:28.917Z,25.5
2018-08-20T19:16:28.631Z,25.4
2018-08-20T19:21:30.082Z,25.2
2018-08-20T19:26:28.625Z,25.1
2018-08-20T19:31:28.634Z,25.1
2018-08-20T19:36:28.633Z,24.9
2018-08-20T19:41:28.629Z,24.7
2018-08-20T19:46:28.648Z,24.7
2018-08-20T19:51:28.897Z,24.6
2018-08-20T19:56:28.798Z,24.5
2018-08-20T20:01:28.704Z,24.2
2018-08-20T20:06:28.965Z,24.2
2018-08-20T20:11:33.777Z,24.1
2018-08-20T20:21:49.410Z,23.9
2018-08-20T20:26:49.749Z,23.9
2018-08-20T20:31:48.795Z,24
2018-08-20T20:36:48.745Z,23.9
2018-08-20T20:41:49.005Z,23.7
2018-08-20T20:46:49.931Z,23.5
2018-08-20T20:51:49.642Z,23.4
2018-08-20T20:56:49.668Z,23.4
2018-08-20T21:01:49.898Z,23.2
2018-08-20T21:06:49.774Z,23.2
2018-08-20T21:11:49.677Z,23.2
2018-08-20T21:16:49.666Z,23.2
2018-08-20T21:21:50.037Z,23.1
2018-08-20T21:26:52.619Z,23.1
2018-08-20T21:32:02.429Z,22.9
2018-08-20T21:37:02.149Z,23
2018-08-20T21:42:02.147Z,22.9
2018-08-20T21:47:02.151Z,22.8
2018-08-20T21:52:02.362Z,22.9
2018-08-20T21:57:02.300Z,22.8
2018-08-20T22:02:02.326Z,22.7
2018-08-20T22:07:02.426Z,22.8
2018-08-20T22:12:02.252Z,22.8
2018-08-20T22:17:14.497Z,22.8
2018-08-20T22:22:14.238Z,22.7
2018-08-20T22:27:14.379Z,22.6
2018-08-20T22:32:14.248Z,22.6
2018-08-20T22:37:14.365Z,22.5
2018-08-20T22:42:14.225Z,22.5
2018-08-20T22:47:14.260Z,22.4
2018-08-20T22:52:14.259Z,22.4
2018-08-20T22:57:14.380Z,22.3
2018-08-20T23:02:26.689Z,22.3
2018-08-20T23:07:26.407Z,22.2
2018-08-20T23:12:26.417Z,22.2
2018-08-20T23:17:26.527Z,22.1
2018-08-20T23:22:26.417Z,22.1
2018-08-20T23:27:26.425Z,22
2018-08-20T23:32:26.601Z,21.9
2018-08-20T23:37:26.434Z,21.8
2018-08-20T23:42:26.438Z,21.9
2018-08-20T23:47:26.438Z,22
2018-08-20T23:52:26.428Z,22.3
2018-08-20T23:57:26.454Z,22.1
